Terminal Aerodrome Forecast
Issued by NWS

Current Version | Previous Version | Text Only | Print | Product List | Glossary On
Versions: 1 2 3 4 5 6 7 8 9 10 11 12 13 14 15 16 17 18 19
000 FTUS41 KBOX 231139 AAB TAFBED TAF AMD KBED 231139Z 2312/2412 01004KT P6SM SCT020 OVC045 TEMPO 2312/2315 BKN020 FM231500 02004KT P6SM BKN035 FM231800 02007KT P6SM SCT140=

USA.gov is the U.S. government's official web portal to all federal, state and local government web resources and services.